| Record Date MM/DD/YYYY | Record Time HH:MM:SS | Record Julian Date NNN day of the year | Air Temperature Max (Degrees Fahrenheit F) | Time Max Air Temperature HH:MM:SS This is the time of max air temp for the prior hour interval listed for record [Time]. | Air Temperature Min (Degrees Fahrenheit F) | Time Min Air Temperature HH:MM:SS This is the time of min air temp for the prior hour interval listed for record [Time]. | Air Temperature Observed (Degrees Fahrenheit F) This is an instantaneous reading at the record [Time]. | Relative Humidity Max (Percent) | Time Max Relative Humidity HH:MM:SS This is the time of max relative humidity for the prior hour interval listed for record [Time]. | Relative Humidity Min (Percent) | Time Min Relative Humidity HH:MM:SS This is the time of min relative humidity for the prior hour interval listed for record [Time]. | Relative Humidity Observed (Percent) This is an instantaneous reading at the record [Time]. | Precipitation (Inches n.nn) rain fall that occurred during the prior hour interval listed for record [Time]. | Wind Speed (Miles Per Hour) Resultant Speed that occurred during the prior hour interval listed for record [Time]. | Wind Direction (Degrees) Resultant Direction that occurred during the prior hour interval listed for record [Time]. | Solar Radiation (Langley's) that occurred during the prior hour interval listed for record [Time]. | Soil Temperature Average at 2 inch depth (Degrees Fahrenheit F) that occurred during the prior hour interval listed for record [Time]. | Soil Temperature Observed at 2 inch depth (Degrees Fahrenheit F) This is an instantaneous reading at the record [Time]. | Soil Temperature Average at 4 inch depth (Degrees Fahrenheit F) that occurred during the prior hour interval listed for record [Time]. | Soil Temperature Observed at 4 inch depth (Degrees Fahrenheit F) This is an instantaneous reading at the record [Time]. |
|---|---|---|---|---|---|---|---|---|---|---|---|---|---|---|---|---|---|---|---|---|
| 08/24/2026 | 0:00:00 | 236 | 80 | 23:00:02 | 79 | 23:59:05 | 79 | 83 | 23:58:02 | 80 | 23:00:00 | 83.2 | 0 | 1.2 | 76 | 0 | 87 | 87 | 88 | 88 |
| 08/24/2026 | 1:00:00 | 236 | 80 | 0:46:03 | 79 | 0:10:05 | 79 | 84 | 0:09:03 | 81 | 0:39:02 | 82.7 | 0 | 1.3 | 75 | 0 | 86 | 86 | 87 | 87 |
| 08/24/2026 | 2:00:00 | 236 | 79 | 1:47:03 | 79 | 1:01:01 | 79 | 83 | 1:02:01 | 80 | 2:00:00 | 80.3 | 0 | 1.7 | 87 | 0 | 86 | 86 | 87 | 87 |
| 08/24/2026 | 3:00:00 | 236 | 79 | 2:14:00 | 79 | 2:59:03 | 79 | 81 | 2:04:02 | 79 | 2:55:04 | 79.33 | 0 | 1.7 | 84 | 0 | 85 | 85 | 86 | 86 |
| 08/24/2026 | 4:00:00 | 236 | 79 | 3:19:01 | 79 | 3:56:02 | 79 | 80 | 3:55:02 | 78 | 3:35:02 | 79.45 | 0 | 2.2 | 105 | 0 | 85 | 85 | 86 | 86 |
| 08/24/2026 | 5:00:00 | 236 | 79 | 4:17:04 | 78 | 4:59:00 | 78 | 81 | 4:52:01 | 78 | 4:26:00 | 80.5 | 0 | 2.8 | 103 | 0 | 85 | 84 | 86 | 86 |
| 08/24/2026 | 6:00:00 | 236 | 79 | 5:58:03 | 78 | 5:19:02 | 79 | 82 | 5:39:01 | 80 | 5:09:04 | 81.3 | 0 | 1.0 | 94 | 1 | 84 | 84 | 85 | 85 |
| 08/24/2026 | 7:00:00 | 236 | 79 | 6:00:04 | 74 | 6:59:04 | 74 | 94 | 6:58:02 | 81 | 6:01:01 | 93.6 | 0.02 | 3.8 | 29 | 0 | 84 | 84 | 85 | 85 |
| 08/24/2026 | 8:00:00 | 236 | 75 | 7:38:00 | 73 | 7:13:05 | 75 | 98 | 7:48:03 | 93 | 7:00:01 | 97.3 | 0.21 | 5.3 | 224 | 0 | 83 | 82 | 85 | 84 |
| 08/24/2026 | 9:00:00 | 236 | 75 | 8:03:03 | 75 | 8:34:01 | 75 | 98 | 8:46:04 | 97 | 8:08:00 | 97.9 | 0.05 | 2.3 | 153 | 1 | 82 | 82 | 84 | 84 |
| 08/24/2026 | 10:00:00 | 236 | 75 | 9:14:01 | 75 | 9:34:05 | 75 | 99 | 9:14:01 | 98 | 9:00:01 | 98.3 | 0.01 | 4.1 | 281 | 2 | 82 | 82 | 84 | 83 |
| 08/24/2026 | 11:00:00 | 236 | 76 | 10:09:05 | 75 | 10:46:04 | 75 | 99 | 10:55:02 | 97 | 10:11:02 | 98.4 | 0.01 | 4.7 | 302 | 7 | 82 | 83 | 83 | 83 |
| 08/24/2026 | 12:00:00 | 236 | 77 | 11:52:01 | 75 | 11:00:00 | 77 | 99 | 11:12:02 | 93 | 11:58:03 | 93.5 | 0 | 5.6 | 293 | 21 | 83 | 83 | 83 | 84 |
| 08/24/2026 | 13:00:00 | 236 | 80 | 12:38:03 | 77 | 12:00:00 | 79 | 95 | 12:01:05 | 84 | 12:49:04 | 85.9 | 0 | 3.8 | 302 | 36 | 84 | 84 | 84 | 84 |
| 08/24/2026 | 14:00:00 | 236 | 82 | 13:48:00 | 79 | 13:06:00 | 81 | 88 | 13:04:00 | 78 | 13:34:04 | 79.98 | 0 | 4.1 | 325 | 37 | 85 | 85 | 84 | 85 |
| 08/24/2026 | 15:00:00 | 236 | 82 | 14:10:01 | 81 | 14:49:02 | 81 | 84 | 14:55:03 | 79 | 14:12:05 | 81 | 0 | 4.3 | 297 | 22 | 86 | 86 | 85 | 85 |
| 08/24/2026 | 16:00:00 | 236 | 82 | 15:26:04 | 81 | 15:02:04 | 82 | 84 | 15:07:01 | 78 | 15:27:04 | 79.94 | 0 | 4.1 | 332 | 19 | 86 | 86 | 85 | 85 |
| 08/24/2026 | 17:00:00 | 236 | 83 | 16:35:03 | 82 | 16:03:00 | 83 | 81 | 16:06:04 | 77 | 16:39:02 | 77.79 | 0 | 1.9 | 8 | 15 | 86 | 86 | 86 | 86 |
| 08/24/2026 | 18:00:00 | 236 | 83 | 17:05:03 | 82 | 17:52:00 | 82 | 82 | 17:46:03 | 77 | 17:01:03 | 81.7 | 0 | 0.5 | 39 | 6 | 86 | 85 | 86 | 85 |
| 08/24/2026 | 19:00:00 | 236 | 82 | 18:00:03 | 79 | 19:00:00 | 79 | 91 | 18:59:05 | 82 | 18:00:00 | 90.9 | 0 | 1.1 | 212 | 1 | 85 | 85 | 85 | 85 |
| 08/24/2026 | 20:00:00 | 236 | 79 | 19:00:00 | 77 | 19:51:01 | 77 | 96 | 19:57:01 | 90 | 19:05:02 | 95.5 | 0 | 0.9 | 204 | 0 | 85 | 84 | 85 | 85 |
| 08/24/2026 | 21:00:00 | 236 | 77 | 20:20:01 | 76 | 20:58:00 | 76 | 96 | 20:59:05 | 94 | 20:22:02 | 96 | 0 | 1.1 | 194 | 0 | 84 | 84 | 85 | 85 |
| 08/24/2026 | 22:00:00 | 236 | 76 | 21:32:03 | 76 | 21:05:05 | 76 | 98 | 21:59:01 | 96 | 21:00:00 | 98.3 | 0 | 2.6 | 262 | 0 | 84 | 83 | 84 | 84 |
| 08/24/2026 | 23:00:00 | 236 | 76 | 22:04:00 | 75 | 22:55:00 | 75 | 99 | 22:59:03 | 98 | 22:11:02 | 99 | 0 | 1.6 | 228 | 0 | 83 | 83 | 84 | 84 |
| 08/25/2026 | 0:00:00 | 237 | 75 | 23:34:00 | 74 | 23:49:05 | 75 | 100 | 23:55:04 | 99 | 23:12:01 | 99.5 | 0 | 0.7 | 185 | 0 | 83 | 83 | 84 | 83 |
| 08/25/2026 | 1:00:00 | 237 | 75 | 0:53:05 | 75 | 0:00:01 | 75 | 100 | 0:47:02 | 99 | 0:05:00 | 99.7 | 0 | 0.2 | 153 | 0 | 82 | 82 | 83 | 83 |
| 08/25/2026 | 2:00:00 | 237 | 75 | 1:00:02 | 75 | 1:10:02 | 75 | 100 | 1:56:00 | 100 | 1:03:02 | 100 | 0 | 0.1 | 360 | 0 | 82 | 82 | 83 | 83 |
| 08/25/2026 | 3:00:00 | 237 | 75 | 2:59:00 | 75 | 2:49:01 | 75 | 100 | 2:10:05 | 100 | 2:18:04 | 100 | 0 | 0.2 | 64 | 0 | 82 | 82 | 83 | 83 |
| 08/25/2026 | 4:00:00 | 237 | 75 | 3:08:01 | 75 | 3:28:04 | 75 | 100 | 3:00:00 | 100 | 3:00:00 | 100 | 0 | 0.2 | 89 | 0 | 82 | 82 | 83 | 83 |
| 08/25/2026 | 5:00:00 | 237 | 75 | 4:31:04 | 75 | 4:13:05 | 75 | 100 | 4:00:00 | 100 | 4:00:00 | 100 | 0 | 0.5 | 120 | 0 | 82 | 82 | 83 | 83 |
| 08/25/2026 | 6:00:00 | 237 | 75 | 6:00:00 | 75 | 5:00:05 | 75 | 100 | 5:00:00 | 100 | 5:00:00 | 100 | 0.02 | 1.3 | 122 | 0 | 82 | 82 | 82 | 82 |
| 08/25/2026 | 7:00:00 | 237 | 76 | 6:59:02 | 75 | 6:04:03 | 76 | 100 | 6:00:00 | 100 | 6:00:00 | 100 | 0.05 | 0.6 | 105 | 1 | 82 | 82 | 82 | 82 |
| 08/25/2026 | 8:00:00 | 237 | 76 | 7:44:03 | 76 | 7:02:02 | 76 | 100 | 7:00:00 | 100 | 7:00:00 | 100 | 0.04 | 2.1 | 147 | 4 | 82 | 82 | 82 | 82 |
| 08/25/2026 | 9:00:00 | 237 | 78 | 8:59:01 | 76 | 8:00:01 | 78 | 100 | 8:00:00 | 99 | 8:59:04 | 98.8 | 0.01 | 2.7 | 153 | 12 | 82 | 82 | 82 | 82 |
| 08/25/2026 | 10:00:00 | 237 | 80 | 9:57:04 | 78 | 9:01:02 | 80 | 99 | 9:00:00 | 93 | 9:48:03 | 93.9 | 0 | 2.7 | 138 | 15 | 82 | 82 | 82 | 82 |
| 08/25/2026 | 11:00:00 | 237 | 85 | 10:59:05 | 80 | 10:00:00 | 85 | 94 | 10:01:02 | 82 | 10:58:04 | 83.3 | 0 | 4.1 | 200 | 40 | 83 | 83 | 83 | 83 |
| 08/25/2026 | 12:00:00 | 237 | 89 | 11:51:01 | 85 | 11:11:04 | 88 | 85 | 11:01:05 | 69 | 11:52:02 | 73.93 | 0 | 4.7 | 225 | 67 | 85 | 86 | 83 | 84 |
| 08/25/2026 | 13:00:00 | 237 | 90 | 12:24:05 | 88 | 12:10:00 | 90 | 76 | 12:01:01 | 63 | 12:57:04 | 66.74 | 0 | 5.0 | 266 | 44 | 87 | 88 | 85 | 86 |
| 08/25/2026 | 14:00:00 | 237 | 92 | 14:00:00 | 89 | 13:43:05 | 92 | 70 | 13:47:02 | 61 | 13:07:00 | 63.1 | 0 | 3.3 | 285 | 27 | 88 | 88 | 86 | 86 |
| 08/25/2026 | 15:00:00 | 237 | 94 | 14:06:03 | 91 | 14:00:04 | 93 | 66 | 14:14:05 | 57 | 14:59:00 | 58.69 | 0 | 3.8 | 267 | 55 | 88 | 89 | 87 | 87 |
| 08/25/2026 | 16:00:00 | 237 | 96 | 15:44:05 | 93 | 15:07:02 | 94 | 62 | 15:06:01 | 49 | 15:44:04 | 57.88 | 0 | 2.4 | 282 | 42 | 89 | 89 | 87 | 88 |
| 08/25/2026 | 17:00:00 | 237 | 96 | 16:35:03 | 94 | 16:25:01 | 95 | 61 | 16:01:03 | 49 | 16:35:01 | 52.88 | 0 | 1.5 | 281 | 23 | 89 | 89 | 88 | 88 |
| 08/25/2026 | 18:00:00 | 237 | 95 | 17:00:00 | 91 | 17:59:05 | 91 | 66 | 17:59:03 | 51 | 17:01:00 | 64 | 0 | 1.2 | 97 | 9 | 89 | 89 | 88 | 88 |
| 08/25/2026 | 19:00:00 | 237 | 91 | 18:00:00 | 86 | 18:50:03 | 86 | 75 | 18:46:04 | 63 | 18:00:01 | 73.52 | 0 | 1.6 | 135 | 1 | 88 | 88 | 88 | 87 |
| 08/25/2026 | 20:00:00 | 237 | 86 | 19:00:01 | 84 | 19:57:02 | 84 | 85 | 19:49:03 | 74 | 19:00:00 | 83.3 | 0 | 1.6 | 143 | 0 | 87 | 87 | 87 | 87 |
| 08/25/2026 | 21:00:00 | 237 | 84 | 20:05:04 | 82 | 20:31:01 | 82 | 91 | 20:27:01 | 83 | 20:01:03 | 90.8 | 0 | 1.0 | 157 | 0 | 86 | 86 | 87 | 86 |
| 08/25/2026 | 22:00:00 | 237 | 82 | 21:26:00 | 81 | 21:59:01 | 81 | 93 | 21:59:03 | 90 | 21:28:02 | 93.3 | 0 | 1.2 | 157 | 0 | 86 | 86 | 86 | 86 |
| 08/25/2026 | 23:00:00 | 237 | 81 | 22:54:01 | 81 | 22:10:03 | 81 | 94 | 22:15:03 | 92 | 22:56:05 | 92.3 | 0 | 1.0 | 174 | 0 | 85 | 85 | 86 | 86 |
| 08/26/2026 | 0:00:00 | 238 | 81 | 23:00:01 | 80 | 23:34:03 | 80 | 95 | 23:41:03 | 92 | 23:01:04 | 94.1 | 0 | 1.3 | 184 | 0 | 85 | 85 | 86 | 85 |
| 08/26/2026 | 1:00:00 | 238 | 80 | 0:07:01 | 79 | 0:53:04 | 79 | 95 | 0:56:04 | 94 | 0:05:04 | 95.1 | 0 | 0.8 | 161 | 0 | 85 | 84 | 85 | 85 |
| 08/26/2026 | 2:00:00 | 238 | 79 | 1:00:00 | 78 | 1:59:05 | 78 | 97 | 1:22:04 | 95 | 1:05:03 | 96.4 | 0 | 0.6 | 201 | 0 | 84 | 84 | 85 | 85 |
| 08/26/2026 | 3:00:00 | 238 | 78 | 2:02:03 | 77 | 2:17:02 | 78 | 97 | 2:22:00 | 96 | 3:00:00 | 96 | 0 | 0.7 | 190 | 0 | 84 | 84 | 84 | 84 |
| 08/26/2026 | 4:00:00 | 238 | 78 | 3:22:03 | 77 | 3:42:02 | 78 | 96 | 3:00:00 | 95 | 3:32:00 | 95.3 | 0 | 1.3 | 134 | 0 | 83 | 83 | 84 | 84 |
| 08/26/2026 | 5:00:00 | 238 | 78 | 4:03:02 | 77 | 4:15:05 | 77 | 96 | 4:59:05 | 95 | 4:04:05 | 96 | 0 | 2.6 | 131 | 0 | 83 | 83 | 84 | 84 |
| 08/26/2026 | 6:00:00 | 238 | 78 | 5:42:03 | 77 | 5:11:00 | 78 | 96 | 5:05:05 | 96 | 5:38:00 | 96 | 0 | 2.1 | 154 | 0 | 83 | 83 | 83 | 83 |
| 08/26/2026 | 7:00:00 | 238 | 80 | 6:59:03 | 77 | 6:00:00 | 80 | 96 | 6:03:00 | 91 | 6:48:04 | 90.9 | 0 | 2.8 | 181 | 7 | 83 | 83 | 83 | 83 |
| 08/26/2026 | 8:00:00 | 238 | 83 | 7:59:05 | 80 | 7:01:03 | 83 | 91 | 7:02:04 | 85 | 7:27:05 | 86.2 | 0 | 3.6 | 232 | 14 | 83 | 83 | 83 | 83 |
| 08/26/2026 | 9:00:00 | 238 | 88 | 9:00:00 | 83 | 8:00:00 | 88 | 87 | 8:00:03 | 75 | 8:56:04 | 76.53 | 0 | 5.2 | 259 | 41 | 83 | 84 | 83 | 84 |
| 08/26/2026 | 10:00:00 | 238 | 92 | 9:47:02 | 88 | 9:01:04 | 92 | 77 | 9:04:01 | 65 | 9:55:03 | 66.14 | 0 | 5.0 | 267 | 53 | 85 | 86 | 84 | 84 |
| 08/26/2026 | 11:00:00 | 238 | 94 | 10:56:05 | 92 | 10:00:03 | 94 | 70 | 10:15:00 | 59 | 10:53:03 | 61.53 | 0 | 6.5 | 267 | 64 | 87 | 88 | 85 | 86 |
| 08/26/2026 | 12:00:00 | 238 | 96 | 11:59:02 | 94 | 11:00:00 | 96 | 64 | 11:02:00 | 54 | 11:59:02 | 56.64 | 0 | 5.8 | 271 | 67 | 89 | 90 | 86 | 87 |
| 08/26/2026 | 13:00:00 | 238 | 99 | 12:54:02 | 96 | 12:10:02 | 99 | 60 | 12:05:05 | 44 | 12:58:02 | 46 | 0 | 4.3 | 268 | 72 | 91 | 91 | 88 | 88 |
| 08/26/2026 | 14:00:00 | 238 | 100 | 13:27:00 | 97 | 13:46:02 | 99 | 53 | 13:09:02 | 40 | 13:30:01 | 44.75 | 0 | 5.5 | 268 | 62 | 92 | 92 | 89 | 89 |
| 08/26/2026 | 15:00:00 | 238 | 99 | 14:29:04 | 98 | 14:57:04 | 98 | 48 | 14:33:03 | 40 | 14:48:02 | 40.65 | 0 | 6.9 | 268 | 58 | 92 | 92 | 90 | 90 |
| 08/26/2026 | 16:00:00 | 238 | 99 | 15:05:01 | 98 | 15:24:02 | 99 | 48 | 15:12:05 | 39 | 15:35:01 | 41.63 | 0 | 7.3 | 287 | 43 | 92 | 92 | 90 | 90 |
| 08/26/2026 | 17:00:00 | 238 | 99 | 16:19:01 | 97 | 16:59:01 | 98 | 47 | 16:33:01 | 40 | 16:01:00 | 44.56 | 0 | 5.9 | 289 | 27 | 91 | 91 | 90 | 90 |
| 08/26/2026 | 18:00:00 | 238 | 98 | 17:00:01 | 94 | 17:59:00 | 94 | 52 | 17:57:02 | 44 | 17:14:03 | 49.9 | 0 | 4.4 | 307 | 10 | 91 | 90 | 90 | 90 |
| 08/26/2026 | 19:00:00 | 238 | 94 | 18:01:04 | 89 | 18:59:05 | 89 | 64 | 18:41:00 | 49 | 18:00:03 | 62.87 | 0 | 1.9 | 307 | 1 | 90 | 89 | 89 | 89 |
| 08/26/2026 | 20:00:00 | 238 | 90 | 19:12:05 | 81 | 19:59:04 | 81 | 75 | 19:59:00 | 58 | 19:12:02 | 75.34 | 0 | 2.9 | 38 | 0 | 89 | 88 | 89 | 88 |
| 08/26/2026 | 21:00:00 | 238 | 81 | 20:00:03 | 78 | 20:59:03 | 78 | 79 | 21:00:00 | 73 | 20:14:05 | 78.9 | 0 | 3.9 | 46 | 0 | 87 | 87 | 88 | 88 |
| 08/26/2026 | 22:00:00 | 238 | 78 | 21:00:00 | 76 | 21:58:05 | 76 | 93 | 21:59:05 | 79 | 21:00:01 | 92.6 | 0 | 3.7 | 17 | 0 | 86 | 86 | 87 | 87 |
| 08/26/2026 | 23:00:00 | 238 | 76 | 22:02:05 | 74 | 22:44:01 | 74 | 96 | 22:58:01 | 93 | 22:00:00 | 96.3 | 0.01 | 1.5 | 55 | 0 | 86 | 85 | 87 | 86 |
| 08/27/2026 | 0:00:00 | 239 | 75 | 23:59:02 | 74 | 23:20:03 | 75 | 98 | 23:16:01 | 95 | 23:59:03 | 94.5 | 0.01 | 4.8 | 171 | 0 | 85 | 85 | 86 | 86 |
| 08/27/2026 | 1:00:00 | 239 | 76 | 0:06:00 | 75 | 0:58:04 | 75 | 97 | 0:59:00 | 94 | 0:03:01 | 97.3 | 0 | 3.8 | 83 | 0 | 84 | 84 | 85 | 85 |
| 08/27/2026 | 2:00:00 | 239 | 75 | 1:00:03 | 74 | 1:59:01 | 75 | 99 | 1:55:02 | 97 | 1:01:01 | 98.5 | 0 | 2.6 | 333 | 0 | 84 | 84 | 85 | 85 |
| 08/27/2026 | 3:00:00 | 239 | 75 | 2:23:04 | 74 | 2:43:03 | 74 | 99 | 2:56:03 | 99 | 2:00:02 | 99.2 | 0 | 1.7 | 202 | 0 | 84 | 84 | 85 | 84 |
| 08/27/2026 | 4:00:00 | 239 | 74 | 3:04:05 | 73 | 3:32:00 | 73 | 99 | 3:03:05 | 99 | 3:34:03 | 99 | 0 | 3.1 | 326 | 0 | 83 | 83 | 84 | 84 |
| 08/27/2026 | 5:00:00 | 239 | 74 | 4:06:05 | 73 | 4:16:01 | 73 | 99 | 4:20:05 | 99 | 4:40:02 | 99 | 0 | 0.9 | 318 | 0 | 83 | 83 | 84 | 84 |
| 08/27/2026 | 6:00:00 | 239 | 74 | 5:59:01 | 73 | 5:44:03 | 74 | 99 | 5:05:01 | 99 | 5:44:03 | 99 | 0 | 0.4 | 216 | 0 | 83 | 83 | 84 | 84 |
| 08/27/2026 | 7:00:00 | 239 | 76 | 6:59:02 | 74 | 6:02:01 | 76 | 99 | 6:01:00 | 93 | 7:00:00 | 92.5 | 0 | 0.4 | 17 | 4 | 83 | 83 | 83 | 83 |
| 08/27/2026 | 8:00:00 | 239 | 80 | 7:47:05 | 76 | 7:01:04 | 79 | 92 | 7:00:00 | 80 | 7:48:02 | 83.2 | 0 | 1.7 | 328 | 20 | 83 | 83 | 83 | 83 |
| 08/27/2026 | 9:00:00 | 239 | 81 | 8:16:01 | 79 | 8:00:00 | 80 | 84 | 8:00:04 | 79 | 8:33:01 | 80.5 | 0 | 1.7 | 356 | 24 | 84 | 84 | 84 | 84 |
| 08/27/2026 | 10:00:00 | 239 | 84 | 9:56:01 | 80 | 9:05:01 | 83 | 83 | 9:18:03 | 70 | 9:56:05 | 71.95 | 0 | 3.4 | 353 | 46 | 84 | 85 | 84 | 84 |
| 08/27/2026 | 11:00:00 | 239 | 87 | 10:54:02 | 83 | 10:02:03 | 86 | 75 | 10:01:02 | 63 | 10:54:04 | 67.15 | 0 | 3.1 | 12 | 64 | 86 | 87 | 85 | 85 |
| 08/27/2026 | 12:00:00 | 239 | 89 | 11:52:04 | 85 | 11:03:02 | 89 | 72 | 11:03:05 | 63 | 11:52:05 | 64.69 | 0 | 4.0 | 353 | 67 | 88 | 89 | 86 | 86 |
| 08/27/2026 | 13:00:00 | 239 | 91 | 12:37:02 | 88 | 12:05:05 | 91 | 68 | 12:01:03 | 59 | 12:59:00 | 61.19 | 0 | 4.2 | 2 | 65 | 89 | 90 | 87 | 88 |
| 08/27/2026 | 14:00:00 | 239 | 93 | 13:52:04 | 91 | 13:05:04 | 93 | 62 | 13:21:02 | 49 | 13:58:05 | 50.29 | 0 | 4.1 | 5 | 64 | 90 | 91 | 88 | 88 |
| 08/27/2026 | 15:00:00 | 239 | 95 | 14:59:05 | 93 | 14:06:05 | 95 | 56 | 14:09:02 | 47 | 14:52:05 | 50.03 | 0 | 3.8 | 14 | 54 | 91 | 91 | 89 | 89 |
| 08/27/2026 | 16:00:00 | 239 | 95 | 15:25:02 | 93 | 15:17:01 | 94 | 51 | 15:06:02 | 45 | 15:31:01 | 47.48 | 0 | 4.3 | 2 | 43 | 91 | 91 | 89 | 89 |
| 08/27/2026 | 17:00:00 | 239 | 95 | 16:52:00 | 94 | 16:00:00 | 94 | 50 | 16:10:03 | 45 | 16:54:03 | 46.02 | 0 | 3.6 | 9 | 27 | 90 | 90 | 89 | 89 |
| 08/27/2026 | 18:00:00 | 239 | 94 | 17:02:04 | 92 | 17:59:05 | 92 | 52 | 17:56:00 | 45 | 17:11:01 | 51.7 | 0 | 1.5 | 46 | 11 | 90 | 89 | 89 | 89 |
| 08/27/2026 | 19:00:00 | 239 | 92 | 18:00:00 | 85 | 18:59:04 | 85 | 64 | 18:57:00 | 51 | 18:03:02 | 63.74 | 0 | 0.5 | 85 | 1 | 89 | 88 | 89 | 88 |
| 08/27/2026 | 20:00:00 | 239 | 85 | 19:00:00 | 82 | 19:59:03 | 82 | 79 | 19:53:03 | 64 | 19:00:02 | 77.71 | 0 | 0.1 | 133 | 0 | 88 | 87 | 88 | 88 |
| 08/27/2026 | 21:00:00 | 239 | 82 | 20:21:05 | 80 | 21:00:00 | 80 | 86 | 20:59:05 | 76 | 20:11:01 | 86.3 | 0 | 0.2 | 53 | 0 | 87 | 87 | 87 | 87 |
| 08/27/2026 | 22:00:00 | 239 | 80 | 21:00:00 | 78 | 22:00:00 | 78 | 90 | 22:00:00 | 85 | 21:54:00 | 89.9 | 0 | 0.2 | 11 | 0 | 86 | 86 | 87 | 87 |
| 08/27/2026 | 23:00:00 | 239 | 78 | 22:00:00 | 77 | 22:19:00 | 78 | 92 | 22:10:05 | 88 | 22:35:04 | 89.1 | 0 | 0.7 | 67 | 0 | 86 | 85 | 86 | 86 |
| 08/28/2026 | 0:00:00 | 240 | 79 | 23:59:04 | 78 | 23:32:04 | 79 | 90 | 23:39:05 | 86 | 0:00:00 | 86.2 | 0 | 1.5 | 112 | 0 | 85 | 85 | 86 | 86 |
| 08/28/2026 | 1:00:00 | 240 | 79 | 0:03:00 | 77 | 0:59:05 | 77 | 91 | 0:59:00 | 86 | 0:00:05 | 91 | 0 | 0.5 | 79 | 0 | 85 | 85 | 86 | 85 |
| 08/28/2026 | 2:00:00 | 240 | 77 | 1:43:02 | 76 | 1:59:05 | 76 | 94 | 2:00:00 | 91 | 1:00:01 | 94.2 | 0 | 0.7 | 216 | 0 | 84 | 84 | 85 | 85 |
| 08/28/2026 | 3:00:00 | 240 | 77 | 2:40:01 | 75 | 2:05:00 | 76 | 96 | 2:59:05 | 94 | 2:15:03 | 95.6 | 0 | 0.8 | 108 | 0 | 84 | 84 | 85 | 85 |
| 08/28/2026 | 4:00:00 | 240 | 76 | 3:30:03 | 75 | 3:54:04 | 75 | 98 | 3:59:03 | 96 | 3:00:00 | 97.6 | 0 | 0.2 | 107 | 0 | 84 | 83 | 84 | 84 |
| 08/28/2026 | 5:00:00 | 240 | 76 | 4:05:02 | 75 | 4:52:04 | 75 | 99 | 4:58:05 | 98 | 4:00:05 | 98.6 | 0 | 0.9 | 62 | 0 | 83 | 83 | 84 | 84 |
| 08/28/2026 | 6:00:00 | 240 | 75 | 5:55:01 | 75 | 5:41:05 | 75 | 99 | 5:37:01 | 98 | 5:58:00 | 98.3 | 0 | 1.0 | 94 | 0 | 83 | 83 | 84 | 84 |
| 08/28/2026 | 7:00:00 | 240 | 80 | 6:59:05 | 75 | 6:00:05 | 80 | 98 | 6:00:01 | 88 | 6:58:00 | 88.4 | 0 | 1.3 | 92 | 10 | 83 | 83 | 84 | 83 |
| 08/28/2026 | 8:00:00 | 240 | 85 | 7:58:03 | 80 | 7:00:00 | 84 | 88 | 7:00:00 | 77 | 8:00:00 | 77.4 | 0 | 1.7 | 74 | 27 | 83 | 83 | 83 | 84 |
| 08/28/2026 | 9:00:00 | 240 | 87 | 8:55:01 | 83 | 8:03:01 | 87 | 81 | 8:03:03 | 70 | 8:59:01 | 70.09 | 0 | 3.6 | 87 | 43 | 84 | 84 | 84 | 84 |
| 08/28/2026 | 10:00:00 | 240 | 92 | 9:59:04 | 87 | 9:04:01 | 92 | 72 | 9:01:04 | 56 | 9:59:05 | 56.6 | 0 | 3.5 | 83 | 56 | 85 | 86 | 84 | 85 |
| 08/28/2026 | 11:00:00 | 240 | 94 | 10:49:03 | 91 | 10:12:04 | 92 | 60 | 10:05:04 | 51 | 10:50:00 | 54.33 | 0 | 3.1 | 54 | 66 | 87 | 88 | 85 | 86 |
| 08/28/2026 | 12:00:00 | 240 | 96 | 11:44:00 | 92 | 11:00:00 | 95 | 58 | 11:00:03 | 43 | 11:59:00 | 44 | 0 | 3.5 | 32 | 73 | 89 | 90 | 86 | 87 |
| 08/28/2026 | 13:00:00 | 240 | 97 | 12:32:01 | 94 | 12:06:04 | 96 | 47 | 12:06:05 | 37 | 12:57:05 | 39.27 | 0 | 3.8 | 28 | 74 | 90 | 91 | 88 | 88 |
| 08/28/2026 | 14:00:00 | 240 | 97 | 13:07:02 | 95 | 13:16:02 | 96 | 44 | 13:33:05 | 37 | 13:23:02 | 38.66 | 0 | 3.8 | 41 | 64 | 91 | 91 | 89 | 89 |
| 08/28/2026 | 15:00:00 | 240 | 98 | 14:55:03 | 95 | 14:00:05 | 96 | 42 | 14:13:01 | 35 | 14:37:05 | 38.46 | 0 | 3.8 | 36 | 57 | 91 | 91 | 89 | 89 |
| 08/28/2026 | 16:00:00 | 240 | 96 | 15:01:01 | 94 | 15:59:00 | 94 | 41 | 15:53:05 | 35 | 15:13:01 | 38.65 | 0 | 3.2 | 34 | 30 | 91 | 91 | 90 | 90 |
| 08/28/2026 | 17:00:00 | 240 | 95 | 16:44:01 | 93 | 16:52:02 | 94 | 43 | 16:32:02 | 37 | 16:13:01 | 39.81 | 0 | 1.9 | 49 | 20 | 90 | 90 | 90 | 89 |
| 08/28/2026 | 18:00:00 | 240 | 94 | 17:06:01 | 91 | 18:00:00 | 91 | 45 | 17:59:01 | 39 | 17:06:01 | 43.55 | 0 | 1.8 | 42 | 13 | 90 | 89 | 89 | 89 |
| 08/28/2026 | 19:00:00 | 240 | 91 | 18:00:00 | 84 | 18:59:04 | 84 | 56 | 18:58:05 | 44 | 18:00:00 | 55.7 | 0 | 0.6 | 54 | 1 | 89 | 88 | 89 | 88 |
| 08/28/2026 | 20:00:00 | 240 | 84 | 19:00:00 | 78 | 19:55:03 | 78 | 73 | 19:54:00 | 54 | 19:00:02 | 70.99 | 0 | 0.6 | 334 | 0 | 88 | 87 | 88 | 88 |
| 08/28/2026 | 21:00:00 | 240 | 78 | 20:09:05 | 77 | 20:24:03 | 77 | 76 | 20:19:02 | 68 | 20:07:04 | 71.95 | 0 | 0.0 | 295 | 0 | 87 | 86 | 88 | 87 |
| 08/28/2026 | 22:00:00 | 240 | 78 | 21:21:01 | 75 | 22:00:00 | 75 | 75 | 21:59:00 | 67 | 21:20:04 | 74.77 | 0 | 0.2 | 333 | 0 | 86 | 86 | 87 | 87 |
| 08/28/2026 | 23:00:00 | 240 | 76 | 22:40:02 | 74 | 22:59:03 | 74 | 76 | 22:56:03 | 70 | 22:39:05 | 75.23 | 0 | 0.2 | 14 | 0 | 85 | 85 | 86 | 86 |
| 08/29/2026 | 0:00:00 | 241 | 74 | 23:01:01 | 73 | 23:39:05 | 73 | 79 | 0:00:00 | 75 | 23:00:01 | 78.68 | 0 | 0.1 | 353 | 0 | 84 | 84 | 86 | 85 |
| 08/29/2026 | 1:00:00 | 241 | 73 | 0:00:00 | 71 | 0:56:01 | 71 | 87 | 0:28:03 | 78 | 0:00:04 | 85.4 | 0 | 0.8 | 8 | 0 | 84 | 83 | 85 | 85 |
| 08/29/2026 | 2:00:00 | 241 | 71 | 1:08:00 | 69 | 1:59:03 | 69 | 91 | 2:00:00 | 85 | 1:13:05 | 90.8 | 0 | 1.1 | 359 | 0 | 83 | 83 | 84 | 84 |
| 08/29/2026 | 3:00:00 | 241 | 70 | 2:37:03 | 68 | 2:49:04 | 68 | 93 | 2:51:03 | 89 | 2:37:00 | 92.7 | 0 | 0.3 | 352 | 0 | 83 | 82 | 84 | 84 |
| 08/29/2026 | 4:00:00 | 241 | 69 | 3:20:02 | 68 | 3:51:00 | 68 | 93 | 3:47:04 | 91 | 3:05:00 | 92.3 | 0 | 1.3 | 24 | 0 | 82 | 82 | 83 | 83 |
| 08/29/2026 | 5:00:00 | 241 | 68 | 4:00:03 | 67 | 4:59:03 | 67 | 95 | 5:00:00 | 92 | 4:03:00 | 95.2 | 0 | 0.8 | 12 | 0 | 81 | 81 | 83 | 83 |
| 08/29/2026 | 6:00:00 | 241 | 68 | 5:28:03 | 66 | 5:53:02 | 66 | 97 | 5:59:03 | 95 | 5:32:03 | 96.5 | 0 | 1.0 | 5 | 0 | 81 | 81 | 82 | 82 |
| 08/29/2026 | 7:00:00 | 241 | 73 | 6:59:04 | 66 | 6:01:01 | 73 | 97 | 6:06:05 | 84 | 7:00:00 | 83.9 | 0 | 1.4 | 357 | 10 | 81 | 81 | 82 | 82 |
| 08/29/2026 | 8:00:00 | 241 | 82 | 7:56:01 | 73 | 7:00:02 | 82 | 84 | 7:01:01 | 63 | 7:56:03 | 63.91 | 0 | 1.5 | 47 | 28 | 81 | 81 | 82 | 82 |
| 08/29/2026 | 9:00:00 | 241 | 87 | 8:58:01 | 82 | 8:02:04 | 86 | 64 | 8:00:01 | 56 | 8:58:04 | 56.83 | 0 | 2.2 | 105 | 44 | 82 | 83 | 82 | 82 |
| 08/29/2026 | 10:00:00 | 241 | 91 | 9:58:03 | 86 | 9:00:00 | 91 | 58 | 9:04:04 | 46 | 9:53:05 | 47.48 | 0 | 2.9 | 112 | 58 | 83 | 84 | 83 | 83 |
| 08/29/2026 | 11:00:00 | 241 | 93 | 10:47:03 | 90 | 10:03:02 | 92 | 50 | 10:14:00 | 37 | 10:57:02 | 41.04 | 0 | 2.7 | 61 | 67 | 85 | 86 | 84 | 84 |
| 08/29/2026 | 12:00:00 | 241 | 95 | 11:59:02 | 91 | 11:05:00 | 94 | 43 | 11:34:01 | 35 | 11:59:05 | 34.79 | 0 | 4.2 | 339 | 73 | 87 | 88 | 85 | 86 |
| 08/29/2026 | 13:00:00 | 241 | 95 | 12:52:05 | 93 | 12:35:02 | 95 | 40 | 12:37:04 | 32 | 12:44:03 | 35.54 | 0 | 4.3 | 6 | 73 | 89 | 90 | 86 | 87 |
| 08/29/2026 | 14:00:00 | 241 | 97 | 13:53:01 | 93 | 13:25:02 | 96 | 38 | 13:03:05 | 27 | 13:21:01 | 29.77 | 0 | 3.4 | 1 | 68 | 90 | 90 | 87 | 88 |
| 08/29/2026 | 15:00:00 | 241 | 98 | 14:59:03 | 95 | 14:17:00 | 98 | 33 | 14:19:05 | 26 | 14:24:00 | 28.71 | 0 | 3.5 | 25 | 59 | 91 | 91 | 88 | 89 |
| 08/29/2026 | 16:00:00 | 241 | 98 | 15:10:00 | 96 | 15:31:01 | 96 | 33 | 15:42:02 | 26 | 15:03:02 | 29.7 | 0 | 2.3 | 83 | 43 | 91 | 90 | 89 | 89 |
| 08/29/2026 | 17:00:00 | 241 | 97 | 16:37:04 | 95 | 16:52:05 | 96 | 32 | 16:09:05 | 28 | 16:38:00 | 30.26 | 0 | 2.5 | 8 | 27 | 90 | 90 | 89 | 89 |
| 08/29/2026 | 18:00:00 | 241 | 96 | 17:05:02 | 92 | 17:59:02 | 92 | 36 | 17:56:00 | 30 | 17:00:05 | 36 | 0 | 1.7 | 73 | 11 | 89 | 89 | 89 | 89 |
| 08/29/2026 | 19:00:00 | 241 | 92 | 18:00:01 | 83 | 19:00:00 | 83 | 53 | 18:59:04 | 36 | 18:00:00 | 52.37 | 0 | 0.5 | 68 | 1 | 88 | 88 | 88 | 88 |
| 08/29/2026 | 20:00:00 | 241 | 83 | 19:00:00 | 79 | 19:30:01 | 79 | 64 | 19:26:03 | 51 | 19:08:04 | 59.96 | 0 | 0.3 | 86 | 0 | 87 | 87 | 88 | 87 |
| 08/29/2026 | 21:00:00 | 241 | 79 | 20:00:01 | 75 | 20:56:05 | 76 | 72 | 20:57:05 | 60 | 20:00:04 | 70.45 | 0 | 0.5 | 72 | 0 | 86 | 86 | 87 | 87 |
| 08/29/2026 | 22:00:00 | 241 | 77 | 21:15:04 | 76 | 21:32:04 | 76 | 75 | 21:25:05 | 65 | 21:53:02 | 66.39 | 0 | 0.6 | 115 | 0 | 85 | 85 | 86 | 86 |
| 08/29/2026 | 23:00:00 | 241 | 76 | 22:00:00 | 73 | 22:55:03 | 73 | 81 | 22:57:05 | 66 | 22:00:01 | 80.1 | 0 | 0.0 | 158 | 0 | 85 | 84 | 86 | 85 |
| 08/30/2026 | 0:00:00 | 242 | 73 | 23:00:01 | 71 | 23:28:04 | 72 | 87 | 23:30:04 | 80 | 23:01:04 | 82.7 | 0 | 0.2 | 342 | 0 | 84 | 84 | 85 | 85 |
| 08/30/2026 | 1:00:00 | 242 | 72 | 0:21:05 | 72 | 0:54:01 | 72 | 84 | 0:57:03 | 80 | 0:18:03 | 82 | 0 | 0.1 | 45 | 0 | 83 | 83 | 85 | 84 |
| 08/30/2026 | 2:00:00 | 242 | 72 | 1:08:00 | 71 | 1:59:00 | 71 | 89 | 1:55:05 | 78 | 1:10:03 | 86.2 | 0 | 0.2 | 33 | 0 | 83 | 83 | 84 | 84 |
| 08/30/2026 | 3:00:00 | 242 | 72 | 2:14:00 | 71 | 2:31:02 | 71 | 91 | 2:25:01 | 82 | 2:11:01 | 87.1 | 0 | 1.1 | 10 | 0 | 83 | 82 | 84 | 84 |
| 08/30/2026 | 4:00:00 | 242 | 72 | 3:10:04 | 71 | 3:27:00 | 72 | 90 | 3:26:03 | 83 | 3:13:05 | 87.1 | 0 | 0.9 | 54 | 0 | 82 | 82 | 83 | 83 |
| 08/30/2026 | 5:00:00 | 242 | 72 | 4:00:02 | 71 | 4:19:00 | 71 | 90 | 4:48:04 | 87 | 4:06:05 | 89.5 | 0 | 0.3 | 53 | 0 | 82 | 82 | 83 | 83 |
| 08/30/2026 | 6:00:00 | 242 | 73 | 5:59:05 | 71 | 5:08:04 | 73 | 91 | 5:18:03 | 87 | 6:00:00 | 87.1 | 0 | 1.6 | 113 | 0 | 82 | 81 | 83 | 83 |
| 08/30/2026 | 7:00:00 | 242 | 79 | 7:00:00 | 73 | 6:00:00 | 79 | 87 | 6:00:00 | 81 | 6:59:05 | 81.1 | 0 | 3.3 | 133 | 9 | 81 | 81 | 82 | 82 |
| 08/30/2026 | 8:00:00 | 242 | 85 | 8:00:00 | 79 | 7:00:00 | 85 | 81 | 7:00:01 | 74 | 7:57:00 | 74.18 | 0 | 3.7 | 169 | 28 | 82 | 82 | 82 | 82 |
| 08/30/2026 | 9:00:00 | 242 | 88 | 8:59:04 | 84 | 8:24:01 | 88 | 77 | 8:24:03 | 67 | 8:49:01 | 68.41 | 0 | 4.5 | 194 | 42 | 83 | 83 | 83 | 83 |
| 08/30/2026 | 10:00:00 | 242 | 91 | 9:59:03 | 88 | 9:01:04 | 91 | 71 | 9:05:01 | 60 | 9:51:05 | 60.63 | 0 | 4.3 | 169 | 55 | 84 | 85 | 83 | 84 |
| 08/30/2026 | 11:00:00 | 242 | 94 | 10:57:01 | 91 | 10:08:02 | 94 | 63 | 10:08:03 | 52 | 10:54:04 | 53.17 | 0 | 4.4 | 154 | 67 | 86 | 87 | 84 | 85 |
| 08/30/2026 | 12:00:00 | 242 | 96 | 11:26:05 | 92 | 11:46:01 | 94 | 57 | 11:10:05 | 47 | 11:31:04 | 53.26 | 0 | 4.2 | 124 | 62 | 88 | 89 | 86 | 86 |
| 08/30/2026 | 13:00:00 | 242 | 97 | 12:39:02 | 92 | 12:02:02 | 94 | 57 | 12:03:00 | 46 | 12:39:01 | 50.21 | 0 | 3.7 | 136 | 59 | 89 | 90 | 87 | 87 |
| 08/30/2026 | 14:00:00 | 242 | 99 | 13:20:03 | 94 | 13:00:04 | 97 | 54 | 13:01:05 | 41 | 13:57:05 | 43.32 | 0 | 3.6 | 109 | 60 | 90 | 90 | 88 | 88 |
| 08/30/2026 | 15:00:00 | 242 | 99 | 14:18:01 | 95 | 14:08:03 | 96 | 47 | 14:09:02 | 41 | 14:18:02 | 46.15 | 0 | 4.1 | 118 | 49 | 91 | 91 | 89 | 89 |
| 08/30/2026 | 16:00:00 | 242 | 96 | 15:04:03 | 94 | 15:59:01 | 94 | 50 | 15:59:01 | 44 | 15:10:01 | 49.07 | 0 | 4.4 | 121 | 16 | 91 | 90 | 89 | 89 |
| 08/30/2026 | 17:00:00 | 242 | 96 | 16:47:00 | 94 | 16:25:04 | 94 | 51 | 16:17:05 | 46 | 16:48:00 | 49.53 | 0 | 4.1 | 121 | 13 | 90 | 90 | 89 | 89 |
| 08/30/2026 | 18:00:00 | 242 | 96 | 17:18:03 | 92 | 17:59:05 | 92 | 53 | 17:54:05 | 46 | 17:18:05 | 52.49 | 0 | 4.7 | 124 | 10 | 89 | 89 | 89 | 89 |
| 08/30/2026 | 19:00:00 | 242 | 92 | 18:00:00 | 88 | 19:00:00 | 88 | 60 | 18:58:01 | 53 | 18:00:00 | 59.75 | 0 | 3.1 | 118 | 1 | 89 | 88 | 88 | 88 |
| 08/30/2026 | 20:00:00 | 242 | 88 | 19:00:01 | 86 | 20:00:00 | 86 | 64 | 19:58:04 | 60 | 19:03:03 | 64.35 | 0 | 2.4 | 116 | 0 | 88 | 87 | 88 | 88 |
| 08/30/2026 | 21:00:00 | 242 | 86 | 20:01:04 | 83 | 20:45:00 | 83 | 72 | 20:44:03 | 64 | 20:00:05 | 70.27 | 0 | 2.1 | 102 | 0 | 87 | 87 | 87 | 87 |
| 08/30/2026 | 22:00:00 | 242 | 83 | 21:00:00 | 82 | 21:35:00 | 82 | 75 | 21:33:05 | 70 | 21:01:01 | 73.34 | 0 | 1.9 | 103 | 0 | 86 | 86 | 87 | 87 |
| 08/30/2026 | 23:00:00 | 242 | 82 | 22:00:00 | 80 | 22:59:03 | 80 | 78 | 22:59:00 | 73 | 22:00:01 | 77.6 | 0 | 2.2 | 114 | 0 | 86 | 85 | 86 | 86 |
| 08/31/2026 | 0:00:00 | 243 | 80 | 23:01:04 | 78 | 23:55:02 | 78 | 86 | 23:54:00 | 78 | 23:00:01 | 84.9 | 0 | 0.5 | 112 | 0 | 85 | 85 | 86 | 86 |
| 08/31/2026 | 1:00:00 | 243 | 79 | 0:12:04 | 78 | 0:59:05 | 78 | 86 | 1:00:00 | 83 | 0:09:04 | 85.9 | 0 | 1.3 | 138 | 0 | 85 | 85 | 86 | 85 |
| 08/31/2026 | 2:00:00 | 243 | 78 | 1:47:05 | 77 | 1:05:03 | 78 | 87 | 1:09:03 | 85 | 1:46:02 | 85.2 | 0 | 1.8 | 138 | 0 | 84 | 84 | 85 | 85 |
| Average | 83.84 | 81.44 | 82.58 | 78.35 | 71.43 | 74.86 | 0 | 2.34 | 18.04 | 85.7 | 85.68 | 85.63 | 85.61 | |||||||
| Total | 0.44 |